Main page
METAR-TAF:

METAR-TAF

Airports :

Montreal Trudeau, Quebec, Canada

Montréal–Pierre Elliott Trudeau International Airport

latitude: 45-28N, longitude: 073-45W, elevation: 31 m

Current weather observation

The report was made 55 minutes ago, at 09:00 UTC
Wind 3 kt from the North
Temperature 10°C
Humidity 87%
Pressure 1026 hPa
Visibility: 24.1 km
Few clouds at a height of 18000 ft
Broken clouds at a height of 22000 ft

METAR: CYUL 220900Z 36003KT 15SM FEW180 BKN220 10/08 A3031 RMK AC1CI6 SLP267

Time: 05:55 (09:55 UTC)

Forecast

The report was made 1 hour and 17 minutes ago, at 08:38 UTC
Forecast valid from 22 at 09 UTC to 23 at 06 UTC
Wind 6 kt from the North/Northeast
Visibility: 10 km
Broken clouds at a height of 24000 ft
From 22 at 2200 UTC
Wind 8 kt from the South/Southeast
Visibility: 10 km
Scattered clouds at a height of 24000 ft

TAF: CYUL 220838Z 2209/2306 03006KT P6SM BKN240 FM222200 15008KT P6SM SCT240 RMK NXT FCST BY 221200Z

Weather observations and forecasts of more than 4000 airports (METAR and TAF reports).

The available stations are represented by yellow and red dots on the map.

Hover mouse over dot to see the name of the station.

Then click to see weather observations and forecasts.

To change the map : click on the green buttons with a black cross to zoom in, on the green button with a dash to zoom out, or on the green arrows for adjacent maps.


METAR-TAF: